sensor_id;sensor_type;location;lat;lon;timestamp;P1;durP1;ratioP1;P2;durP2;ratioP2
679;SDS011;322;48.846;9.230;2023-04-15T00:01:12;10.93;;;7.87;;
679;SDS011;322;48.846;9.230;2023-04-15T00:03:44;7.90;;;6.30;;
679;SDS011;322;48.846;9.230;2023-04-15T00:06:11;11.20;;;6.67;;
679;SDS011;322;48.846;9.230;2023-04-15T00:08:38;8.10;;;6.20;;
679;SDS011;322;48.846;9.230;2023-04-15T00:11:05;7.90;;;6.80;;
679;SDS011;322;48.846;9.230;2023-04-15T00:13:32;9.60;;;6.80;;
679;SDS011;322;48.846;9.230;2023-04-15T00:15:59;9.67;;;6.80;;
679;SDS011;322;48.846;9.230;2023-04-15T00:18:26;9.40;;;7.50;;
679;SDS011;322;48.846;9.230;2023-04-15T00:20:55;10.83;;;6.30;;
679;SDS011;322;48.846;9.230;2023-04-15T00:23:21;9.77;;;7.07;;
679;SDS011;322;48.846;9.230;2023-04-15T00:25:48;8.43;;;7.53;;
679;SDS011;322;48.846;9.230;2023-04-15T00:28:16;9.47;;;7.30;;
679;SDS011;322;48.846;9.230;2023-04-15T00:30:42;9.27;;;6.80;;
679;SDS011;322;48.846;9.230;2023-04-15T00:33:09;14.77;;;7.53;;
679;SDS011;322;48.846;9.230;2023-04-15T00:35:36;11.20;;;8.03;;
679;SDS011;322;48.846;9.230;2023-04-15T00:38:05;11.60;;;7.80;;
679;SDS011;322;48.846;9.230;2023-04-15T00:40:33;8.07;;;6.20;;
679;SDS011;322;48.846;9.230;2023-04-15T00:43:00;9.20;;;6.00;;
679;SDS011;322;48.846;9.230;2023-04-15T00:45:28;10.07;;;6.87;;
679;SDS011;322;48.846;9.230;2023-04-15T00:47:55;11.13;;;6.43;;
679;SDS011;322;48.846;9.230;2023-04-15T00:50:23;8.13;;;6.40;;
679;SDS011;322;48.846;9.230;2023-04-15T00:52:50;13.30;;;7.00;;
679;SDS011;322;48.846;9.230;2023-04-15T00:55:18;9.70;;;6.60;;
679;SDS011;322;48.846;9.230;2023-04-15T00:57:45;9.47;;;7.70;;
679;SDS011;322;48.846;9.230;2023-04-15T01:00:12;10.40;;;8.03;;
679;SDS011;322;48.846;9.230;2023-04-15T01:02:40;8.73;;;7.83;;
679;SDS011;322;48.846;9.230;2023-04-15T01:05:07;10.50;;;7.73;;
679;SDS011;322;48.846;9.230;2023-04-15T01:07:34;10.30;;;7.27;;
679;SDS011;322;48.846;9.230;2023-04-15T01:10:02;8.35;;;6.65;;
679;SDS011;322;48.846;9.230;2023-04-15T01:12:31;12.00;;;7.77;;
679;SDS011;322;48.846;9.230;2023-04-15T01:14:59;9.43;;;7.47;;
679;SDS011;322;48.846;9.230;2023-04-15T01:17:27;10.80;;;7.17;;
679;SDS011;322;48.846;9.230;2023-04-15T01:19:54;10.90;;;7.63;;
679;SDS011;322;48.846;9.230;2023-04-15T01:22:21;10.65;;;6.40;;
679;SDS011;322;48.846;9.230;2023-04-15T01:24:51;9.80;;;7.60;;
679;SDS011;322;48.846;9.230;2023-04-15T01:27:24;11.37;;;7.43;;
679;SDS011;322;48.846;9.230;2023-04-15T01:29:51;8.95;;;7.55;;
679;SDS011;322;48.846;9.230;2023-04-15T01:32:17;9.60;;;7.63;;
679;SDS011;322;48.846;9.230;2023-04-15T01:34:44;10.25;;;6.68;;
679;SDS011;322;48.846;9.230;2023-04-15T01:37:11;9.10;;;8.13;;
679;SDS011;322;48.846;9.230;2023-04-15T01:39:38;11.80;;;7.38;;
679;SDS011;322;48.846;9.230;2023-04-15T01:42:05;11.03;;;7.83;;
679;SDS011;322;48.846;9.230;2023-04-15T01:44:33;11.53;;;8.20;;
679;SDS011;322;48.846;9.230;2023-04-15T01:47:00;12.27;;;7.73;;
679;SDS011;322;48.846;9.230;2023-04-15T01:49:27;10.23;;;7.60;;
679;SDS011;322;48.846;9.230;2023-04-15T01:51:54;8.10;;;7.30;;
679;SDS011;322;48.846;9.230;2023-04-15T01:54:20;8.20;;;7.10;;
679;SDS011;322;48.846;9.230;2023-04-15T01:56:47;8.23;;;6.53;;
679;SDS011;322;48.846;9.230;2023-04-15T01:59:14;12.07;;;7.30;;
679;SDS011;322;48.846;9.230;2023-04-15T02:01:42;9.10;;;7.57;;
679;SDS011;322;48.846;9.230;2023-04-15T02:04:10;9.27;;;6.20;;
679;SDS011;322;48.846;9.230;2023-04-15T02:06:40;9.55;;;6.88;;
679;SDS011;322;48.846;9.230;2023-04-15T02:09:07;8.45;;;6.95;;
679;SDS011;322;48.846;9.230;2023-04-15T02:11:34;9.07;;;7.03;;
679;SDS011;322;48.846;9.230;2023-04-15T02:14:01;14.60;;;7.20;;
679;SDS011;322;48.846;9.230;2023-04-15T02:16:29;9.48;;;7.45;;
679;SDS011;322;48.846;9.230;2023-04-15T02:18:58;12.02;;;7.35;;
679;SDS011;322;48.846;9.230;2023-04-15T02:21:25;8.88;;;7.47;;
679;SDS011;322;48.846;9.230;2023-04-15T02:23:52;9.48;;;8.02;;
679;SDS011;322;48.846;9.230;2023-04-15T02:26:18;9.95;;;7.50;;
679;SDS011;322;48.846;9.230;2023-04-15T02:28:46;9.25;;;7.53;;
679;SDS011;322;48.846;9.230;2023-04-15T02:31:13;9.23;;;7.38;;
679;SDS011;322;48.846;9.230;2023-04-15T02:33:40;9.13;;;6.93;;
679;SDS011;322;48.846;9.230;2023-04-15T02:36:08;10.07;;;7.95;;
679;SDS011;322;48.846;9.230;2023-04-15T02:38:36;9.60;;;7.30;;
679;SDS011;322;48.846;9.230;2023-04-15T02:41:04;11.15;;;9.70;;
679;SDS011;322;48.846;9.230;2023-04-15T02:43:31;9.02;;;7.63;;
679;SDS011;322;48.846;9.230;2023-04-15T02:45:58;12.18;;;7.72;;
679;SDS011;322;48.846;9.230;2023-04-15T02:48:25;12.75;;;8.20;;
679;SDS011;322;48.846;9.230;2023-04-15T02:50:51;10.27;;;6.80;;
679;SDS011;322;48.846;9.230;2023-04-15T02:53:20;10.32;;;6.85;;
679;SDS011;322;48.846;9.230;2023-04-15T02:55:46;13.90;;;8.00;;
679;SDS011;322;48.846;9.230;2023-04-15T02:58:13;8.35;;;6.88;;
679;SDS011;322;48.846;9.230;2023-04-15T03:00:40;8.32;;;7.18;;
679;SDS011;322;48.846;9.230;2023-04-15T03:03:07;16.52;;;7.53;;
679;SDS011;322;48.846;9.230;2023-04-15T03:05:34;7.82;;;7.03;;
679;SDS011;322;48.846;9.230;2023-04-15T03:08:03;11.20;;;9.05;;
679;SDS011;322;48.846;9.230;2023-04-15T03:10:32;8.68;;;7.50;;
679;SDS011;322;48.846;9.230;2023-04-15T03:12:58;12.88;;;8.88;;
679;SDS011;322;48.846;9.230;2023-04-15T03:15:25;11.75;;;7.32;;
679;SDS011;322;48.846;9.230;2023-04-15T03:17:52;10.23;;;7.43;;
679;SDS011;322;48.846;9.230;2023-04-15T03:20:19;9.63;;;7.70;;
679;SDS011;322;48.846;9.230;2023-04-15T03:22:46;7.88;;;6.82;;
679;SDS011;322;48.846;9.230;2023-04-15T03:25:13;10.13;;;7.50;;
679;SDS011;322;48.846;9.230;2023-04-15T03:27:41;9.85;;;7.20;;
679;SDS011;322;48.846;9.230;2023-04-15T03:30:08;10.15;;;6.72;;
679;SDS011;322;48.846;9.230;2023-04-15T03:32:36;11.15;;;8.20;;
679;SDS011;322;48.846;9.230;2023-04-15T03:35:03;10.13;;;8.02;;
679;SDS011;322;48.846;9.230;2023-04-15T03:37:30;8.45;;;7.45;;
679;SDS011;322;48.846;9.230;2023-04-15T03:39:57;10.20;;;6.55;;
679;SDS011;322;48.846;9.230;2023-04-15T03:42:24;11.23;;;6.90;;
679;SDS011;322;48.846;9.230;2023-04-15T03:44:52;9.43;;;7.30;;
679;SDS011;322;48.846;9.230;2023-04-15T03:47:19;9.07;;;8.18;;
679;SDS011;322;48.846;9.230;2023-04-15T03:49:46;9.23;;;6.60;;
679;SDS011;322;48.846;9.230;2023-04-15T03:52:13;8.20;;;7.30;;
679;SDS011;322;48.846;9.230;2023-04-15T03:54:39;9.38;;;7.45;;
679;SDS011;322;48.846;9.230;2023-04-15T03:57:06;9.98;;;7.95;;
679;SDS011;322;48.846;9.230;2023-04-15T03:59:33;9.77;;;7.83;;
679;SDS011;322;48.846;9.230;2023-04-15T04:02:01;11.07;;;8.30;;
679;SDS011;322;48.846;9.230;2023-04-15T04:04:28;7.80;;;7.00;;
679;SDS011;322;48.846;9.230;2023-04-15T04:06:55;8.43;;;7.63;;
679;SDS011;322;48.846;9.230;2023-04-15T04:09:22;10.40;;;7.75;;
679;SDS011;322;48.846;9.230;2023-04-15T04:11:49;12.68;;;7.80;;
679;SDS011;322;48.846;9.230;2023-04-15T04:14:16;10.18;;;7.25;;
679;SDS011;322;48.846;9.230;2023-04-15T04:16:43;11.80;;;6.80;;
679;SDS011;322;48.846;9.230;2023-04-15T04:19:11;9.80;;;5.85;;
679;SDS011;322;48.846;9.230;2023-04-15T04:21:39;8.45;;;6.50;;
679;SDS011;322;48.846;9.230;2023-04-15T04:24:05;9.98;;;7.10;;
679;SDS011;322;48.846;9.230;2023-04-15T04:26:32;15.20;;;7.80;;
679;SDS011;322;48.846;9.230;2023-04-15T04:28:59;10.38;;;8.10;;
679;SDS011;322;48.846;9.230;2023-04-15T04:31:26;12.77;;;7.35;;
679;SDS011;322;48.846;9.230;2023-04-15T04:33:52;13.45;;;8.35;;
679;SDS011;322;48.846;9.230;2023-04-15T04:36:21;9.13;;;7.78;;
679;SDS011;322;48.846;9.230;2023-04-15T04:38:47;14.98;;;8.15;;
679;SDS011;322;48.846;9.230;2023-04-15T04:41:14;11.45;;;7.05;;
679;SDS011;322;48.846;9.230;2023-04-15T04:43:41;13.88;;;8.65;;
679;SDS011;322;48.846;9.230;2023-04-15T04:46:08;11.73;;;7.50;;
679;SDS011;322;48.846;9.230;2023-04-15T04:48:36;9.65;;;8.82;;
679;SDS011;322;48.846;9.230;2023-04-15T04:51:03;11.40;;;9.10;;
679;SDS011;322;48.846;9.230;2023-04-15T04:53:31;10.07;;;8.90;;
679;SDS011;322;48.846;9.230;2023-04-15T04:55:58;13.68;;;9.35;;
679;SDS011;322;48.846;9.230;2023-04-15T04:58:25;13.32;;;8.27;;
679;SDS011;322;48.846;9.230;2023-04-15T05:00:51;11.02;;;7.70;;
679;SDS011;322;48.846;9.230;2023-04-15T05:03:18;12.80;;;8.48;;
679;SDS011;322;48.846;9.230;2023-04-15T05:05:45;10.68;;;7.60;;
679;SDS011;322;48.846;9.230;2023-04-15T05:08:13;9.65;;;6.85;;
679;SDS011;322;48.846;9.230;2023-04-15T05:10:41;13.20;;;8.55;;
679;SDS011;322;48.846;9.230;2023-04-15T05:13:08;13.13;;;8.68;;
679;SDS011;322;48.846;9.230;2023-04-15T05:15:35;10.85;;;8.65;;
679;SDS011;322;48.846;9.230;2023-04-15T05:18:03;12.90;;;8.50;;
679;SDS011;322;48.846;9.230;2023-04-15T05:20:30;9.52;;;8.02;;
679;SDS011;322;48.846;9.230;2023-04-15T05:22:57;12.88;;;9.55;;
679;SDS011;322;48.846;9.230;2023-04-15T05:25:24;13.25;;;8.98;;
679;SDS011;322;48.846;9.230;2023-04-15T05:27:52;9.98;;;8.50;;
679;SDS011;322;48.846;9.230;2023-04-15T05:30:19;14.32;;;8.23;;
679;SDS011;322;48.846;9.230;2023-04-15T05:32:46;10.05;;;8.20;;
679;SDS011;322;48.846;9.230;2023-04-15T05:35:13;10.75;;;8.60;;
679;SDS011;322;48.846;9.230;2023-04-15T05:37:40;11.70;;;8.18;;
679;SDS011;322;48.846;9.230;2023-04-15T05:40:07;11.80;;;8.70;;
679;SDS011;322;48.846;9.230;2023-04-15T05:42:34;9.20;;;8.27;;
679;SDS011;322;48.846;9.230;2023-04-15T05:45:03;9.87;;;7.43;;
679;SDS011;322;48.846;9.230;2023-04-15T05:47:33;10.35;;;8.10;;
679;SDS011;322;48.846;9.230;2023-04-15T05:50:00;9.93;;;7.57;;
679;SDS011;322;48.846;9.230;2023-04-15T05:52:27;12.73;;;7.90;;
679;SDS011;322;48.846;9.230;2023-04-15T05:54:54;13.40;;;7.57;;
679;SDS011;322;48.846;9.230;2023-04-15T05:57:20;11.13;;;7.93;;
679;SDS011;322;48.846;9.230;2023-04-15T05:59:47;12.20;;;6.90;;
679;SDS011;322;48.846;9.230;2023-04-15T06:02:17;7.70;;;6.80;;
679;SDS011;322;48.846;9.230;2023-04-15T06:04:44;10.40;;;7.60;;
679;SDS011;322;48.846;9.230;2023-04-15T06:07:11;10.37;;;7.70;;
679;SDS011;322;48.846;9.230;2023-04-15T06:09:38;10.00;;;7.00;;
679;SDS011;322;48.846;9.230;2023-04-15T06:12:05;7.97;;;7.17;;
679;SDS011;322;48.846;9.230;2023-04-15T06:14:36;6.90;;;6.10;;
679;SDS011;322;48.846;9.230;2023-04-15T06:17:02;7.50;;;5.97;;
679;SDS011;322;48.846;9.230;2023-04-15T06:19:31;8.07;;;6.27;;
679;SDS011;322;48.846;9.230;2023-04-15T06:21:57;7.50;;;6.00;;
679;SDS011;322;48.846;9.230;2023-04-15T06:24:24;8.60;;;5.90;;
679;SDS011;322;48.846;9.230;2023-04-15T06:26:51;8.43;;;5.80;;
679;SDS011;322;48.846;9.230;2023-04-15T06:29:18;7.43;;;6.20;;
679;SDS011;322;48.846;9.230;2023-04-15T06:31:46;8.73;;;7.10;;
679;SDS011;322;48.846;9.230;2023-04-15T06:34:13;8.33;;;6.87;;
679;SDS011;322;48.846;9.230;2023-04-15T06:36:41;11.00;;;6.00;;
679;SDS011;322;48.846;9.230;2023-04-15T06:39:08;6.80;;;5.93;;
679;SDS011;322;48.846;9.230;2023-04-15T06:41:34;8.77;;;6.80;;
679;SDS011;322;48.846;9.230;2023-04-15T06:44:01;7.07;;;6.40;;
679;SDS011;322;48.846;9.230;2023-04-15T06:46:28;7.03;;;6.33;;
679;SDS011;322;48.846;9.230;2023-04-15T06:48:55;6.47;;;5.80;;
679;SDS011;322;48.846;9.230;2023-04-15T06:51:22;9.53;;;6.67;;
679;SDS011;322;48.846;9.230;2023-04-15T06:53:50;7.90;;;7.10;;
679;SDS011;322;48.846;9.230;2023-04-15T06:56:17;6.97;;;6.27;;
679;SDS011;322;48.846;9.230;2023-04-15T06:58:44;7.60;;;6.80;;
679;SDS011;322;48.846;9.230;2023-04-15T07:01:11;7.73;;;7.00;;
679;SDS011;322;48.846;9.230;2023-04-15T07:03:38;8.47;;;6.30;;
679;SDS011;322;48.846;9.230;2023-04-15T07:06:05;11.43;;;6.30;;
679;SDS011;322;48.846;9.230;2023-04-15T07:08:33;9.23;;;7.20;;
679;SDS011;322;48.846;9.230;2023-04-15T07:11:02;8.20;;;7.03;;
679;SDS011;322;48.846;9.230;2023-04-15T07:13:29;6.93;;;6.27;;
679;SDS011;322;48.846;9.230;2023-04-15T07:15:57;8.73;;;6.77;;
679;SDS011;322;48.846;9.230;2023-04-15T07:18:24;8.10;;;6.63;;
679;SDS011;322;48.846;9.230;2023-04-15T07:20:50;6.83;;;5.90;;
679;SDS011;322;48.846;9.230;2023-04-15T07:23:17;11.50;;;6.63;;
679;SDS011;322;48.846;9.230;2023-04-15T07:25:45;7.77;;;6.63;;
679;SDS011;322;48.846;9.230;2023-04-15T07:28:13;7.77;;;7.07;;
679;SDS011;322;48.846;9.230;2023-04-15T07:30:40;6.70;;;6.10;;
679;SDS011;322;48.846;9.230;2023-04-15T07:33:07;9.00;;;6.03;;
679;SDS011;322;48.846;9.230;2023-04-15T07:35:34;6.33;;;5.70;;
679;SDS011;322;48.846;9.230;2023-04-15T07:38:00;6.17;;;5.57;;
679;SDS011;322;48.846;9.230;2023-04-15T07:40:27;8.47;;;6.47;;
679;SDS011;322;48.846;9.230;2023-04-15T07:42:54;9.73;;;6.47;;
679;SDS011;322;48.846;9.230;2023-04-15T07:45:23;6.77;;;6.00;;
679;SDS011;322;48.846;9.230;2023-04-15T07:47:51;8.87;;;6.00;;
679;SDS011;322;48.846;9.230;2023-04-15T07:50:18;6.87;;;6.13;;
679;SDS011;322;48.846;9.230;2023-04-15T07:52:44;7.67;;;5.70;;
679;SDS011;322;48.846;9.230;2023-04-15T07:55:11;12.40;;;6.47;;
679;SDS011;322;48.846;9.230;2023-04-15T07:57:39;6.37;;;5.77;;
679;SDS011;322;48.846;9.230;2023-04-15T08:00:06;8.40;;;5.93;;
679;SDS011;322;48.846;9.230;2023-04-15T08:02:35;9.15;;;6.10;;
679;SDS011;322;48.846;9.230;2023-04-15T08:05:02;8.50;;;6.40;;
679;SDS011;322;48.846;9.230;2023-04-15T08:07:29;6.57;;;5.93;;
679;SDS011;322;48.846;9.230;2023-04-15T08:09:56;7.43;;;6.17;;
679;SDS011;322;48.846;9.230;2023-04-15T08:12:23;6.03;;;5.30;;
679;SDS011;322;48.846;9.230;2023-04-15T08:14:50;8.30;;;6.03;;
679;SDS011;322;48.846;9.230;2023-04-15T08:17:16;8.10;;;7.27;;
679;SDS011;322;48.846;9.230;2023-04-15T08:19:45;7.70;;;5.93;;
679;SDS011;322;48.846;9.230;2023-04-15T08:22:12;8.60;;;6.07;;
679;SDS011;322;48.846;9.230;2023-04-15T08:24:39;10.13;;;6.10;;
679;SDS011;322;48.846;9.230;2023-04-15T08:27:06;9.40;;;6.63;;
679;SDS011;322;48.846;9.230;2023-04-15T08:29:33;12.80;;;5.30;;
679;SDS011;322;48.846;9.230;2023-04-15T08:32:00;8.37;;;5.40;;
679;SDS011;322;48.846;9.230;2023-04-15T08:34:28;7.17;;;5.60;;
679;SDS011;322;48.846;9.230;2023-04-15T08:36:56;7.43;;;5.23;;
679;SDS011;322;48.846;9.230;2023-04-15T08:39:23;8.43;;;5.03;;
679;SDS011;322;48.846;9.230;2023-04-15T08:41:51;8.60;;;4.73;;
679;SDS011;322;48.846;9.230;2023-04-15T08:44:22;8.57;;;5.33;;
679;SDS011;322;48.846;9.230;2023-04-15T08:46:50;9.23;;;5.30;;
679;SDS011;322;48.846;9.230;2023-04-15T08:49:18;8.53;;;5.63;;
679;SDS011;322;48.846;9.230;2023-04-15T08:51:47;7.17;;;5.40;;
679;SDS011;322;48.846;9.230;2023-04-15T08:54:16;6.10;;;5.40;;
679;SDS011;322;48.846;9.230;2023-04-15T08:56:44;10.17;;;5.70;;
679;SDS011;322;48.846;9.230;2023-04-15T08:59:11;7.10;;;5.40;;
679;SDS011;322;48.846;9.230;2023-04-15T09:01:38;6.00;;;5.37;;
679;SDS011;322;48.846;9.230;2023-04-15T09:04:05;6.20;;;5.33;;
679;SDS011;322;48.846;9.230;2023-04-15T09:06:32;6.40;;;4.60;;
679;SDS011;322;48.846;9.230;2023-04-15T09:08:59;6.13;;;5.10;;
679;SDS011;322;48.846;9.230;2023-04-15T09:11:30;11.90;;;5.87;;
679;SDS011;322;48.846;9.230;2023-04-15T09:13:56;6.10;;;5.50;;
679;SDS011;322;48.846;9.230;2023-04-15T09:16:23;8.70;;;5.77;;
679;SDS011;322;48.846;9.230;2023-04-15T09:18:50;5.87;;;5.27;;
679;SDS011;322;48.846;9.230;2023-04-15T09:21:17;5.40;;;4.70;;
679;SDS011;322;48.846;9.230;2023-04-15T09:23:53;5.53;;;4.00;;
679;SDS011;322;48.846;9.230;2023-04-15T09:26:30;5.10;;;3.73;;
679;SDS011;322;48.846;9.230;2023-04-15T09:29:01;4.10;;;3.67;;
679;SDS011;322;48.846;9.230;2023-04-15T09:31:30;4.97;;;4.10;;
679;SDS011;322;48.846;9.230;2023-04-15T09:33:57;5.07;;;4.53;;
679;SDS011;322;48.846;9.230;2023-04-15T09:36:24;8.50;;;5.30;;
679;SDS011;322;48.846;9.230;2023-04-15T09:38:54;4.40;;;3.93;;
679;SDS011;322;48.846;9.230;2023-04-15T09:41:21;6.50;;;3.80;;
679;SDS011;322;48.846;9.230;2023-04-15T09:43:50;4.13;;;3.53;;
679;SDS011;322;48.846;9.230;2023-04-15T09:46:17;10.90;;;4.20;;
679;SDS011;322;48.846;9.230;2023-04-15T09:48:44;5.60;;;4.40;;
679;SDS011;322;48.846;9.230;2023-04-15T09:51:11;5.10;;;4.60;;
679;SDS011;322;48.846;9.230;2023-04-15T09:53:38;9.80;;;5.97;;
679;SDS011;322;48.846;9.230;2023-04-15T09:56:05;6.37;;;4.40;;
679;SDS011;322;48.846;9.230;2023-04-15T09:58:34;7.03;;;4.50;;
679;SDS011;322;48.846;9.230;2023-04-15T10:01:04;6.97;;;4.37;;
679;SDS011;322;48.846;9.230;2023-04-15T10:03:32;7.20;;;4.50;;
679;SDS011;322;48.846;9.230;2023-04-15T10:06:00;6.03;;;4.50;;
679;SDS011;322;48.846;9.230;2023-04-15T10:08:29;4.30;;;4.00;;
679;SDS011;322;48.846;9.230;2023-04-15T10:10:59;5.50;;;4.40;;
679;SDS011;322;48.846;9.230;2023-04-15T10:13:29;7.17;;;4.57;;
679;SDS011;322;48.846;9.230;2023-04-15T10:16:00;5.20;;;3.20;;
679;SDS011;322;48.846;9.230;2023-04-15T10:18:33;6.30;;;3.70;;
679;SDS011;322;48.846;9.230;2023-04-15T10:21:01;3.73;;;3.37;;
679;SDS011;322;48.846;9.230;2023-04-15T10:23:28;3.90;;;2.70;;
679;SDS011;322;48.846;9.230;2023-04-15T10:25:55;4.10;;;3.23;;
679;SDS011;322;48.846;9.230;2023-04-15T10:28:23;3.03;;;2.60;;
679;SDS011;322;48.846;9.230;2023-04-15T10:30:51;5.80;;;2.87;;
679;SDS011;322;48.846;9.230;2023-04-15T10:33:20;5.67;;;3.40;;
679;SDS011;322;48.846;9.230;2023-04-15T10:35:49;4.20;;;2.60;;
679;SDS011;322;48.846;9.230;2023-04-15T10:38:30;3.73;;;2.70;;
679;SDS011;322;48.846;9.230;2023-04-15T10:41:07;6.27;;;3.40;;
679;SDS011;322;48.846;9.230;2023-04-15T10:43:38;4.87;;;3.10;;
679;SDS011;322;48.846;9.230;2023-04-15T10:46:04;4.70;;;3.77;;
679;SDS011;322;48.846;9.230;2023-04-15T10:48:33;3.63;;;2.63;;
679;SDS011;322;48.846;9.230;2023-04-15T10:51:00;4.10;;;3.17;;
679;SDS011;322;48.846;9.230;2023-04-15T10:53:28;4.50;;;3.90;;
679;SDS011;322;48.846;9.230;2023-04-15T10:55:56;7.77;;;4.70;;
679;SDS011;322;48.846;9.230;2023-04-15T10:58:23;16.53;;;14.83;;
679;SDS011;322;48.846;9.230;2023-04-15T11:00:52;6.37;;;5.80;;
679;SDS011;322;48.846;9.230;2023-04-15T11:03:34;7.10;;;5.93;;
679;SDS011;322;48.846;9.230;2023-04-15T11:06:02;7.70;;;5.10;;
679;SDS011;322;48.846;9.230;2023-04-15T11:11:19;4.73;;;3.90;;
679;SDS011;322;48.846;9.230;2023-04-15T11:13:47;8.33;;;4.07;;
679;SDS011;322;48.846;9.230;2023-04-15T11:16:15;8.57;;;4.83;;
679;SDS011;322;48.846;9.230;2023-04-15T11:18:43;6.30;;;4.53;;
679;SDS011;322;48.846;9.230;2023-04-15T11:21:19;5.00;;;4.50;;
679;SDS011;322;48.846;9.230;2023-04-15T11:23:50;6.40;;;5.13;;
679;SDS011;322;48.846;9.230;2023-04-15T11:26:16;5.90;;;5.00;;
679;SDS011;322;48.846;9.230;2023-04-15T11:28:44;4.87;;;4.47;;
679;SDS011;322;48.846;9.230;2023-04-15T11:31:12;4.97;;;4.47;;
679;SDS011;322;48.846;9.230;2023-04-15T11:33:45;6.30;;;4.70;;
679;SDS011;322;48.846;9.230;2023-04-15T11:36:18;6.43;;;4.63;;
679;SDS011;322;48.846;9.230;2023-04-15T11:38:45;5.60;;;5.00;;
679;SDS011;322;48.846;9.230;2023-04-15T11:41:12;6.40;;;4.90;;
679;SDS011;322;48.846;9.230;2023-04-15T11:43:39;4.37;;;4.03;;
679;SDS011;322;48.846;9.230;2023-04-15T11:46:06;5.23;;;4.00;;
679;SDS011;322;48.846;9.230;2023-04-15T11:48:34;8.47;;;4.50;;
679;SDS011;322;48.846;9.230;2023-04-15T11:51:03;5.80;;;4.30;;
679;SDS011;322;48.846;9.230;2023-04-15T11:53:38;7.30;;;4.57;;
679;SDS011;322;48.846;9.230;2023-04-15T11:56:07;4.43;;;3.60;;
679;SDS011;322;48.846;9.230;2023-04-15T11:58:35;4.20;;;3.30;;
679;SDS011;322;48.846;9.230;2023-04-15T12:01:03;4.30;;;2.50;;
679;SDS011;322;48.846;9.230;2023-04-15T12:03:35;4.73;;;3.00;;
679;SDS011;322;48.846;9.230;2023-04-15T12:06:05;5.50;;;3.60;;
679;SDS011;322;48.846;9.230;2023-04-15T12:08:56;4.33;;;2.80;;
679;SDS011;322;48.846;9.230;2023-04-15T12:11:28;3.70;;;3.00;;
679;SDS011;322;48.846;9.230;2023-04-15T12:14:02;9.03;;;4.43;;
679;SDS011;322;48.846;9.230;2023-04-15T12:16:30;3.97;;;3.57;;
679;SDS011;322;48.846;9.230;2023-04-15T12:18:59;5.50;;;3.70;;
679;SDS011;322;48.846;9.230;2023-04-15T12:21:32;5.47;;;4.17;;
679;SDS011;322;48.846;9.230;2023-04-15T12:24:00;8.60;;;4.13;;
679;SDS011;322;48.846;9.230;2023-04-15T12:26:30;10.23;;;4.80;;
679;SDS011;322;48.846;9.230;2023-04-15T12:28:59;6.10;;;5.50;;
679;SDS011;322;48.846;9.230;2023-04-15T12:31:27;4.87;;;4.47;;
679;SDS011;322;48.846;9.230;2023-04-15T12:33:54;6.97;;;6.20;;
679;SDS011;322;48.846;9.230;2023-04-15T12:36:22;6.50;;;5.90;;
679;SDS011;322;48.846;9.230;2023-04-15T12:38:50;10.47;;;6.70;;
679;SDS011;322;48.846;9.230;2023-04-15T12:41:17;9.13;;;5.00;;
679;SDS011;322;48.846;9.230;2023-04-15T12:43:45;8.70;;;5.73;;
679;SDS011;322;48.846;9.230;2023-04-15T12:46:11;8.73;;;6.83;;
679;SDS011;322;48.846;9.230;2023-04-15T12:48:39;7.13;;;5.17;;
679;SDS011;322;48.846;9.230;2023-04-15T12:51:06;5.10;;;4.70;;
679;SDS011;322;48.846;9.230;2023-04-15T12:53:33;5.10;;;4.53;;
679;SDS011;322;48.846;9.230;2023-04-15T12:56:01;6.97;;;5.77;;
679;SDS011;322;48.846;9.230;2023-04-15T12:58:28;7.87;;;5.00;;
679;SDS011;322;48.846;9.230;2023-04-15T13:00:55;5.53;;;3.73;;
679;SDS011;322;48.846;9.230;2023-04-15T13:03:22;5.87;;;4.77;;
679;SDS011;322;48.846;9.230;2023-04-15T13:05:49;3.97;;;3.00;;
679;SDS011;322;48.846;9.230;2023-04-15T13:08:16;4.27;;;3.17;;
679;SDS011;322;48.846;9.230;2023-04-15T13:10:43;3.97;;;3.07;;
679;SDS011;322;48.846;9.230;2023-04-15T13:13:11;4.10;;;2.77;;
679;SDS011;322;48.846;9.230;2023-04-15T13:15:38;4.27;;;2.90;;
679;SDS011;322;48.846;9.230;2023-04-15T13:18:05;3.67;;;3.17;;
679;SDS011;322;48.846;9.230;2023-04-15T13:20:33;6.50;;;3.50;;
679;SDS011;322;48.846;9.230;2023-04-15T13:23:00;3.13;;;2.87;;
679;SDS011;322;48.846;9.230;2023-04-15T13:25:27;6.17;;;3.20;;
679;SDS011;322;48.846;9.230;2023-04-15T13:27:54;3.57;;;3.13;;
679;SDS011;322;48.846;9.230;2023-04-15T13:30:22;3.47;;;2.60;;
679;SDS011;322;48.846;9.230;2023-04-15T13:32:49;4.13;;;2.77;;
679;SDS011;322;48.846;9.230;2023-04-15T13:35:17;4.13;;;2.47;;
679;SDS011;322;48.846;9.230;2023-04-15T13:37:44;2.57;;;2.03;;
679;SDS011;322;48.846;9.230;2023-04-15T13:40:12;2.23;;;1.70;;
679;SDS011;322;48.846;9.230;2023-04-15T13:42:38;2.10;;;1.33;;
679;SDS011;322;48.846;9.230;2023-04-15T13:45:06;2.00;;;1.10;;
679;SDS011;322;48.846;9.230;2023-04-15T13:47:35;2.33;;;1.33;;
679;SDS011;322;48.846;9.230;2023-04-15T13:50:02;1.67;;;1.10;;
679;SDS011;322;48.846;9.230;2023-04-15T13:52:29;0.80;;;0.80;;
679;SDS011;322;48.846;9.230;2023-04-15T13:54:55;1.50;;;1.10;;
679;SDS011;322;48.846;9.230;2023-04-15T13:57:22;1.90;;;1.10;;
679;SDS011;322;48.846;9.230;2023-04-15T13:59:50;4.80;;;1.00;;
679;SDS011;322;48.846;9.230;2023-04-15T14:02:19;2.33;;;1.60;;
679;SDS011;322;48.846;9.230;2023-04-15T14:04:48;2.20;;;1.20;;
679;SDS011;322;48.846;9.230;2023-04-15T14:07:15;2.20;;;0.80;;
679;SDS011;322;48.846;9.230;2023-04-15T14:09:42;1.80;;;1.27;;
679;SDS011;322;48.846;9.230;2023-04-15T14:12:09;1.87;;;0.93;;
679;SDS011;322;48.846;9.230;2023-04-15T14:14:36;1.70;;;1.27;;
679;SDS011;322;48.846;9.230;2023-04-15T14:17:02;2.80;;;1.10;;
679;SDS011;322;48.846;9.230;2023-04-15T14:19:29;1.47;;;1.10;;
679;SDS011;322;48.846;9.230;2023-04-15T14:21:58;1.73;;;1.17;;
679;SDS011;322;48.846;9.230;2023-04-15T14:24:25;3.57;;;1.70;;
679;SDS011;322;48.846;9.230;2023-04-15T14:26:52;1.43;;;1.20;;
679;SDS011;322;48.846;9.230;2023-04-15T14:29:19;1.37;;;1.10;;
679;SDS011;322;48.846;9.230;2023-04-15T14:31:46;2.40;;;1.20;;
679;SDS011;322;48.846;9.230;2023-04-15T14:34:13;1.70;;;1.60;;
679;SDS011;322;48.846;9.230;2023-04-15T14:36:40;7.50;;;1.30;;
679;SDS011;322;48.846;9.230;2023-04-15T14:39:09;2.70;;;1.20;;
679;SDS011;322;48.846;9.230;2023-04-15T14:41:36;2.73;;;1.30;;
679;SDS011;322;48.846;9.230;2023-04-15T14:44:03;5.30;;;3.00;;
679;SDS011;322;48.846;9.230;2023-04-15T14:46:30;1.97;;;1.63;;
679;SDS011;322;48.846;9.230;2023-04-15T14:48:57;4.43;;;1.43;;
679;SDS011;322;48.846;9.230;2023-04-15T14:51:24;1.50;;;1.40;;
679;SDS011;322;48.846;9.230;2023-04-15T14:53:51;3.40;;;1.77;;
679;SDS011;322;48.846;9.230;2023-04-15T14:56:19;1.67;;;1.50;;
679;SDS011;322;48.846;9.230;2023-04-15T14:58:46;2.93;;;1.50;;
679;SDS011;322;48.846;9.230;2023-04-15T15:01:13;1.60;;;1.50;;
679;SDS011;322;48.846;9.230;2023-04-15T15:03:40;2.30;;;1.40;;
679;SDS011;322;48.846;9.230;2023-04-15T15:06:07;2.40;;;1.57;;
679;SDS011;322;48.846;9.230;2023-04-15T15:08:34;1.83;;;1.17;;
679;SDS011;322;48.846;9.230;2023-04-15T15:11:01;2.07;;;1.50;;
679;SDS011;322;48.846;9.230;2023-04-15T15:13:29;1.97;;;1.50;;
679;SDS011;322;48.846;9.230;2023-04-15T15:15:56;2.13;;;1.40;;
679;SDS011;322;48.846;9.230;2023-04-15T15:18:23;1.70;;;1.20;;
679;SDS011;322;48.846;9.230;2023-04-15T15:20:50;1.90;;;1.73;;
679;SDS011;322;48.846;9.230;2023-04-15T15:23:17;1.77;;;1.60;;
679;SDS011;322;48.846;9.230;2023-04-15T15:25:44;1.60;;;1.40;;
679;SDS011;322;48.846;9.230;2023-04-15T15:28:12;2.23;;;1.60;;
679;SDS011;322;48.846;9.230;2023-04-15T15:30:40;3.67;;;1.80;;
679;SDS011;322;48.846;9.230;2023-04-15T15:33:06;6.53;;;5.00;;
679;SDS011;322;48.846;9.230;2023-04-15T15:35:33;2.30;;;1.50;;
679;SDS011;322;48.846;9.230;2023-04-15T15:38:00;4.50;;;1.97;;
679;SDS011;322;48.846;9.230;2023-04-15T15:40:27;6.40;;;3.40;;
679;SDS011;322;48.846;9.230;2023-04-15T15:42:54;6.87;;;5.77;;
679;SDS011;322;48.846;9.230;2023-04-15T15:45:20;3.20;;;2.63;;
679;SDS011;322;48.846;9.230;2023-04-15T15:47:49;5.20;;;4.77;;